createdAt,value
2018-08-24T00:00:18.584Z,23.30
2018-08-24T00:02:47.853Z,23.30
2018-08-24T00:05:16.318Z,23.30
2018-08-24T00:07:44.868Z,23.20
2018-08-24T00:10:13.389Z,23.20
2018-08-24T00:12:41.949Z,23.20
2018-08-24T00:15:10.492Z,23.20
2018-08-24T00:17:39.401Z,23.20
2018-08-24T00:20:08.050Z,23.20
2018-08-24T00:22:36.584Z,23.10
2018-08-24T00:25:05.554Z,23.20
2018-08-24T00:27:34.119Z,23.10
2018-08-24T00:30:03.999Z,23.10
2018-08-24T00:32:32.574Z,23.10
2018-08-24T00:35:01.062Z,23.10
2018-08-24T00:37:29.596Z,23.10
2018-08-24T00:39:58.132Z,23.10
2018-08-24T00:42:26.787Z,23.10
2018-08-24T00:44:55.263Z,23.10
2018-08-24T00:47:23.762Z,23.00
2018-08-24T00:49:52.315Z,23.00
2018-08-24T00:52:20.815Z,23.00
2018-08-24T00:54:49.353Z,23.00
2018-08-24T00:57:17.990Z,23.00
2018-08-24T00:59:46.669Z,23.00
2018-08-24T01:02:15.378Z,23.00
2018-08-24T01:04:43.980Z,22.90
2018-08-24T01:07:13.796Z,22.90
2018-08-24T01:09:42.907Z,22.90
2018-08-24T01:12:14.424Z,22.90
2018-08-24T01:14:44.375Z,22.90
2018-08-24T01:17:18.373Z,22.90
2018-08-24T01:19:47.469Z,22.90
2018-08-24T01:22:16.334Z,22.90
2018-08-24T01:24:45.547Z,22.90
2018-08-24T01:27:14.091Z,22.80
2018-08-24T01:29:43.445Z,22.80
2018-08-24T01:32:12.049Z,22.80
2018-08-24T01:34:41.515Z,22.80
2018-08-24T01:37:10.049Z,22.80
2018-08-24T01:39:38.640Z,22.80
2018-08-24T01:42:07.143Z,22.70
2018-08-24T01:44:35.656Z,22.80
2018-08-24T01:47:04.333Z,22.70
2018-08-24T01:49:33.209Z,22.70
2018-08-24T01:52:01.730Z,22.70
2018-08-24T01:54:30.935Z,22.70
2018-08-24T01:56:59.477Z,22.70
2018-08-24T01:59:28.235Z,22.70
2018-08-24T02:01:57.275Z,22.60
2018-08-24T02:04:25.814Z,22.60
2018-08-24T02:06:54.332Z,22.60
2018-08-24T02:09:23.842Z,22.60
2018-08-24T02:11:52.495Z,22.60
2018-08-24T02:14:26.308Z,22.60
2018-08-24T02:16:54.963Z,22.60
2018-08-24T02:19:28.929Z,22.50
2018-08-24T02:22:02.719Z,22.60
2018-08-24T02:24:31.262Z,22.50
2018-08-24T02:27:00.106Z,22.50
2018-08-24T02:29:28.610Z,22.50
2018-08-24T02:31:57.098Z,22.50
2018-08-24T02:34:25.675Z,22.50
2018-08-24T02:36:54.215Z,22.40
2018-08-24T02:39:23.380Z,22.40
2018-08-24T02:41:51.894Z,22.50
2018-08-24T02:44:20.616Z,22.50
2018-08-24T02:46:49.178Z,22.60
2018-08-24T02:49:17.692Z,22.60
2018-08-24T02:51:46.216Z,22.60
2018-08-24T02:54:14.751Z,22.60
2018-08-24T02:56:43.257Z,22.60
2018-08-24T02:59:12.098Z,22.70
2018-08-24T03:01:40.581Z,22.60
2018-08-24T03:04:09.092Z,22.70
2018-08-24T03:06:37.698Z,22.70
2018-08-24T03:09:09.157Z,22.70
2018-08-24T03:11:37.761Z,22.70
2018-08-24T03:14:06.510Z,22.70
2018-08-24T03:16:35.048Z,22.70
2018-08-24T03:19:03.578Z,22.70
2018-08-24T03:21:32.082Z,22.70
2018-08-24T03:24:00.571Z,22.60
2018-08-24T03:26:29.121Z,22.70
2018-08-24T03:28:57.627Z,22.60
2018-08-24T03:31:26.169Z,22.60
2018-08-24T03:33:54.917Z,22.60
2018-08-24T03:38:58.256Z,22.60
2018-08-24T03:41:26.812Z,22.60
2018-08-24T03:43:55.282Z,22.60
2018-08-24T03:46:23.814Z,22.50
2018-08-24T03:48:52.357Z,22.50
2018-08-24T03:51:21.056Z,22.50
2018-08-24T03:53:49.579Z,22.40
2018-08-24T03:56:18.098Z,22.30
2018-08-24T03:58:47.014Z,22.30
2018-08-24T04:01:15.618Z,22.20
2018-08-24T04:03:44.230Z,22.20
2018-08-24T04:06:12.747Z,22.20
2018-08-24T04:08:41.268Z,22.20
2018-08-24T04:11:09.785Z,22.20
2018-08-24T04:13:38.264Z,22.20
2018-08-24T04:16:06.848Z,22.20
2018-08-24T04:18:35.441Z,22.20
2018-08-24T04:21:04.008Z,22.20
2018-08-24T04:23:33.483Z,22.20
2018-08-24T04:26:02.032Z,22.20
2018-08-24T04:28:30.534Z,22.20
2018-08-24T04:30:59.039Z,22.30
2018-08-24T04:33:27.604Z,22.30
2018-08-24T04:35:56.119Z,22.30
2018-08-24T04:38:25.917Z,22.30
2018-08-24T04:40:54.441Z,22.30
2018-08-24T04:43:22.955Z,22.30
2018-08-24T04:45:51.480Z,22.30
2018-08-24T04:48:19.964Z,22.30
2018-08-24T04:50:48.960Z,22.40
2018-08-24T04:53:17.470Z,22.40
2018-08-24T04:55:46.023Z,22.50
2018-08-24T04:58:14.943Z,22.50
2018-08-24T05:00:44.294Z,22.50
2018-08-24T05:03:12.839Z,22.60
2018-08-24T05:05:41.369Z,22.60
2018-08-24T05:08:10.324Z,22.60
2018-08-24T05:10:38.834Z,22.70
2018-08-24T05:13:07.428Z,22.70
2018-08-24T05:15:36.239Z,22.80
2018-08-24T05:18:04.792Z,22.80
2018-08-24T05:20:33.283Z,22.90
2018-08-24T05:23:01.929Z,22.90
2018-08-24T05:25:30.427Z,23.00
2018-08-24T05:27:58.981Z,23.10
2018-08-24T05:30:27.505Z,23.10
2018-08-24T05:32:56.078Z,23.10
2018-08-24T05:35:25.289Z,23.10
2018-08-24T05:37:53.839Z,23.10
2018-08-24T05:40:22.350Z,23.10
2018-08-24T05:42:50.906Z,23.10
2018-08-24T05:45:19.452Z,23.10
2018-08-24T05:47:48.002Z,23.10
2018-08-24T05:50:16.517Z,23.10
2018-08-24T05:52:45.062Z,23.10
2018-08-24T05:55:15.466Z,23.20
2018-08-24T05:57:44.048Z,23.20
2018-08-24T06:00:14.830Z,23.10
2018-08-24T06:02:43.403Z,23.10
2018-08-24T06:05:11.917Z,23.00
2018-08-24T06:07:40.667Z,22.80
2018-08-24T06:10:09.214Z,22.50
2018-08-24T06:12:37.741Z,22.30
2018-08-24T06:15:06.266Z,22.10
2018-08-24T06:17:40.009Z,22.00
2018-08-24T06:20:08.551Z,22.00
2018-08-24T06:22:37.466Z,21.90
2018-08-24T06:25:05.996Z,21.90
2018-08-24T06:27:34.537Z,21.90
2018-08-24T06:30:03.041Z,21.90
2018-08-24T06:32:31.703Z,22.00
2018-08-24T06:35:00.223Z,22.00
2018-08-24T06:37:28.795Z,22.00
2018-08-24T06:39:57.321Z,22.10
2018-08-24T06:42:25.821Z,22.10
2018-08-24T06:44:54.669Z,22.20
2018-08-24T06:47:23.270Z,22.20
2018-08-24T06:49:51.695Z,22.40
2018-08-24T06:52:20.316Z,22.50
2018-08-24T06:54:49.326Z,22.60
2018-08-24T06:57:17.838Z,22.70
2018-08-24T06:59:46.629Z,22.80
2018-08-24T07:02:15.161Z,22.90
2018-08-24T07:04:43.725Z,22.90
2018-08-24T07:07:12.301Z,22.90
2018-08-24T07:09:40.804Z,22.90
2018-08-24T07:12:11.524Z,22.90
2018-08-24T07:14:40.914Z,22.90
2018-08-24T07:17:09.560Z,22.90
2018-08-24T07:19:38.078Z,22.90
2018-08-24T07:22:06.766Z,22.90
2018-08-24T07:24:35.270Z,23.00
2018-08-24T07:27:03.878Z,23.10
2018-08-24T07:29:32.369Z,23.20
2018-08-24T07:32:01.766Z,23.30
2018-08-24T07:34:30.870Z,23.50
2018-08-24T07:36:59.497Z,23.60
2018-08-24T07:39:28.159Z,23.70
2018-08-24T07:41:56.844Z,23.70
2018-08-24T07:44:25.385Z,23.90
2018-08-24T07:46:53.990Z,23.90
2018-08-24T07:49:22.626Z,24.10
2018-08-24T07:51:51.314Z,24.20
2018-08-24T07:54:19.879Z,24.40
2018-08-24T07:56:48.369Z,24.50
2018-08-24T07:59:16.963Z,24.60
2018-08-24T08:01:45.617Z,24.80
2018-08-24T08:04:14.217Z,25.00
2018-08-24T08:06:43.063Z,25.00
2018-08-24T08:09:11.613Z,25.00
2018-08-24T08:11:41.338Z,25.10
2018-08-24T08:14:10.294Z,25.10
2018-08-24T08:16:38.821Z,25.10
2018-08-24T08:19:07.349Z,25.30
2018-08-24T08:21:35.873Z,25.30
2018-08-24T08:24:04.543Z,25.50
2018-08-24T08:26:33.085Z,25.60
2018-08-24T08:29:01.691Z,25.60
2018-08-24T08:31:30.253Z,25.70
2018-08-24T08:33:58.799Z,25.80
2018-08-24T08:36:27.298Z,25.80
2018-08-24T08:38:55.851Z,25.90
2018-08-24T08:41:24.405Z,26.20
2018-08-24T08:43:52.937Z,26.30
2018-08-24T08:46:21.460Z,26.40
2018-08-24T08:48:50.029Z,26.60
2018-08-24T08:51:18.721Z,26.70
2018-08-24T08:53:47.275Z,26.70
2018-08-24T08:56:15.802Z,26.80
2018-08-24T08:58:44.625Z,26.80
2018-08-24T09:01:13.150Z,26.70
2018-08-24T09:03:41.747Z,26.70
2018-08-24T09:06:10.397Z,26.50
2018-08-24T09:08:38.842Z,26.40
2018-08-24T09:11:07.360Z,26.40
2018-08-24T09:13:35.965Z,26.40
2018-08-24T09:16:04.555Z,26.50
2018-08-24T09:18:38.430Z,26.40
2018-08-24T09:21:12.283Z,26.80
2018-08-24T09:23:46.165Z,27.00
2018-08-24T09:26:20.113Z,27.30
2018-08-24T09:28:50.091Z,27.10
2018-08-24T09:31:20.370Z,27.10
2018-08-24T09:33:49.791Z,27.20
2018-08-24T09:36:20.206Z,27.30
2018-08-24T09:38:49.922Z,27.30
2018-08-24T09:41:18.446Z,27.10
2018-08-24T09:43:52.209Z,27.00
2018-08-24T09:46:24.931Z,26.90
2018-08-24T09:49:28.811Z,26.80
2018-08-24T09:51:57.639Z,26.80
2018-08-24T09:54:26.218Z,26.90
2018-08-24T09:56:54.905Z,26.80
2018-08-24T09:59:23.437Z,26.90
2018-08-24T10:01:57.242Z,27.00
2018-08-24T10:04:31.172Z,27.20
2018-08-24T10:07:05.102Z,27.30
2018-08-24T10:09:34.592Z,27.50
2018-08-24T10:12:03.113Z,27.50
2018-08-24T10:14:31.649Z,27.30
2018-08-24T10:17:00.498Z,27.30
2018-08-24T10:19:29.257Z,27.30
2018-08-24T10:21:57.752Z,27.40
2018-08-24T10:24:26.263Z,27.50
2018-08-24T10:26:54.830Z,27.60
2018-08-24T10:29:24.095Z,27.60
2018-08-24T10:31:52.555Z,27.70
2018-08-24T10:34:21.315Z,27.70
2018-08-24T10:36:49.794Z,27.50
2018-08-24T10:39:18.291Z,27.30
2018-08-24T10:41:46.910Z,27.20
2018-08-24T10:44:15.410Z,27.10
2018-08-24T10:46:44.006Z,27.20
2018-08-24T10:49:12.553Z,27.40
2018-08-24T10:51:41.153Z,27.40
2018-08-24T10:54:09.670Z,27.40
2018-08-24T10:56:38.243Z,27.40
2018-08-24T10:59:07.325Z,27.60
2018-08-24T11:01:35.815Z,27.60
2018-08-24T11:04:04.382Z,27.60
2018-08-24T11:06:32.941Z,27.50
2018-08-24T11:09:01.455Z,27.50
2018-08-24T11:11:30.028Z,27.40
2018-08-24T11:13:58.816Z,27.30
2018-08-24T11:16:33.406Z,27.10
2018-08-24T11:19:02.013Z,27.30
2018-08-24T11:21:30.739Z,27.40
2018-08-24T11:24:00.234Z,27.40
2018-08-24T11:26:28.823Z,27.50
2018-08-24T11:28:57.320Z,27.50
2018-08-24T11:31:25.872Z,27.60
2018-08-24T11:33:54.405Z,27.70
2018-08-24T11:36:23.007Z,27.60
2018-08-24T11:38:51.520Z,27.50
2018-08-24T11:41:20.131Z,27.50
2018-08-24T11:43:48.650Z,27.50
2018-08-24T11:46:17.227Z,27.40
2018-08-24T11:48:45.786Z,27.30
2018-08-24T11:51:14.332Z,27.30
2018-08-24T11:53:42.979Z,27.30
2018-08-24T11:56:11.638Z,27.50
2018-08-24T11:58:40.325Z,27.60
2018-08-24T12:01:09.007Z,27.60
2018-08-24T12:03:37.918Z,27.60
2018-08-24T12:06:06.645Z,27.60
2018-08-24T12:08:35.171Z,27.50
2018-08-24T12:11:03.760Z,27.50
2018-08-24T12:13:32.318Z,27.60
2018-08-24T12:16:01.694Z,27.50
2018-08-24T12:18:30.378Z,27.60
2018-08-24T12:20:58.861Z,27.60
2018-08-24T12:23:27.401Z,27.60
2018-08-24T12:25:55.971Z,27.70
2018-08-24T12:28:24.454Z,27.70
2018-08-24T12:30:53.097Z,27.80
2018-08-24T12:33:21.608Z,27.90
2018-08-24T12:35:50.598Z,27.90
2018-08-24T12:38:19.557Z,27.80
2018-08-24T12:40:48.186Z,27.90
2018-08-24T12:43:16.903Z,27.80
2018-08-24T12:45:46.159Z,27.80
2018-08-24T12:48:14.641Z,27.70
2018-08-24T12:50:43.183Z,27.80
2018-08-24T12:53:11.875Z,27.70
2018-08-24T12:55:41.737Z,27.60
2018-08-24T12:58:10.434Z,27.70
2018-08-24T13:00:39.094Z,27.70
2018-08-24T13:03:07.654Z,27.70
2018-08-24T13:05:36.258Z,27.60
2018-08-24T13:08:05.123Z,27.60
2018-08-24T13:10:33.620Z,27.60
2018-08-24T13:13:02.173Z,27.60
2018-08-24T13:15:30.771Z,27.80
2018-08-24T13:17:59.347Z,27.90
2018-08-24T13:20:27.912Z,28.00
2018-08-24T13:22:56.892Z,28.20
2018-08-24T13:25:25.933Z,28.20
2018-08-24T13:27:54.507Z,28.60
2018-08-24T13:30:23.053Z,28.70
2018-08-24T13:32:51.670Z,28.50
2018-08-24T13:35:20.357Z,28.40
2018-08-24T13:37:49.088Z,28.20
2018-08-24T13:40:17.585Z,28.00
2018-08-24T13:42:47.059Z,27.90
2018-08-24T13:45:15.575Z,27.80
2018-08-24T13:47:44.527Z,27.70
2018-08-24T13:50:13.054Z,27.70
2018-08-24T13:52:41.603Z,27.90
2018-08-24T13:55:10.216Z,27.90
2018-08-24T13:57:39.057Z,28.00
2018-08-24T14:00:08.057Z,27.90
2018-08-24T14:02:36.660Z,27.80
2018-08-24T14:05:05.261Z,27.60
2018-08-24T14:07:34.465Z,27.30
2018-08-24T14:10:03.353Z,27.00
2018-08-24T14:12:32.028Z,26.80
2018-08-24T14:15:00.622Z,26.60
2018-08-24T14:17:29.809Z,26.40
2018-08-24T14:19:58.460Z,26.20
2018-08-24T14:22:27.015Z,26.10
2018-08-24T14:24:55.539Z,26.00
2018-08-24T14:27:24.179Z,25.90
2018-08-24T14:29:52.737Z,25.80
2018-08-24T14:32:21.819Z,25.70
2018-08-24T14:34:51.184Z,25.60
2018-08-24T14:37:19.758Z,25.50
2018-08-24T14:39:49.111Z,25.40
2018-08-24T14:42:17.638Z,25.40
2018-08-24T14:44:46.242Z,25.40
2018-08-24T14:47:16.018Z,25.60
2018-08-24T14:49:44.761Z,25.60
2018-08-24T14:52:13.503Z,25.90
2018-08-24T14:54:42.378Z,26.00
2018-08-24T14:57:11.774Z,25.90
2018-08-24T14:59:40.451Z,25.80
2018-08-24T15:02:08.965Z,25.80
2018-08-24T15:04:38.465Z,25.80
2018-08-24T15:07:08.341Z,25.70
2018-08-24T15:09:37.100Z,25.60
2018-08-24T15:12:06.044Z,25.50
2018-08-24T15:14:34.683Z,25.50
2018-08-24T15:17:03.532Z,25.40
2018-08-24T15:19:32.678Z,25.50
2018-08-24T15:22:01.276Z,25.40
2018-08-24T15:24:29.907Z,25.30
2018-08-24T15:26:58.474Z,25.40
2018-08-24T15:29:27.036Z,25.30
2018-08-24T15:31:55.596Z,25.20
2018-08-24T15:34:24.194Z,25.10
2018-08-24T15:36:53.661Z,25.00
2018-08-24T15:39:23.597Z,24.90
2018-08-24T15:41:52.145Z,24.80
2018-08-24T15:44:21.682Z,24.60
2018-08-24T15:46:50.250Z,24.50
2018-08-24T15:49:19.594Z,24.40
2018-08-24T15:51:48.311Z,24.30
2018-08-24T15:54:16.910Z,24.10
2018-08-24T15:56:45.510Z,23.80
2018-08-24T15:59:14.092Z,23.60
2018-08-24T16:01:45.510Z,23.50
2018-08-24T16:04:14.046Z,23.30
2018-08-24T16:06:42.553Z,23.20
2018-08-24T16:09:11.743Z,23.10
2018-08-24T16:11:40.708Z,23.00
2018-08-24T16:14:09.638Z,23.00
2018-08-24T16:16:38.856Z,23.00
2018-08-24T16:19:07.392Z,23.00
2018-08-24T16:21:35.954Z,22.90
2018-08-24T16:24:04.555Z,22.90
2018-08-24T16:26:33.042Z,22.80
2018-08-24T16:29:01.605Z,22.70
2018-08-24T16:31:30.174Z,22.60
2018-08-24T16:33:58.896Z,22.50
2018-08-24T16:36:27.388Z,22.50
2018-08-24T16:38:55.947Z,22.40
2018-08-24T16:41:24.434Z,22.30
2018-08-24T16:43:52.975Z,22.20
2018-08-24T16:46:21.683Z,22.30
2018-08-24T16:48:50.590Z,22.20
2018-08-24T16:51:20.438Z,22.00
2018-08-24T16:53:48.974Z,21.90
2018-08-24T16:56:17.757Z,21.80
2018-08-24T16:58:46.476Z,21.80
2018-08-24T17:01:15.083Z,21.80
2018-08-24T17:03:43.966Z,21.80
2018-08-24T17:06:12.701Z,21.90
2018-08-24T17:08:41.298Z,21.80
2018-08-24T17:11:10.057Z,21.90
2018-08-24T17:13:38.613Z,22.00
2018-08-24T17:16:07.169Z,22.00
2018-08-24T17:18:35.796Z,22.10
2018-08-24T17:21:04.400Z,22.10
2018-08-24T17:23:32.878Z,22.00
2018-08-24T17:26:01.430Z,22.10
2018-08-24T17:28:29.960Z,22.10
2018-08-24T17:30:59.102Z,22.00
2018-08-24T17:33:27.660Z,22.00
2018-08-24T17:35:56.300Z,22.10
2018-08-24T17:38:25.532Z,22.00
2018-08-24T17:40:54.097Z,22.00
2018-08-24T17:43:22.647Z,21.90
2018-08-24T17:45:51.237Z,21.80
2018-08-24T17:48:19.731Z,21.80
2018-08-24T17:50:49.182Z,21.80
2018-08-24T17:53:17.741Z,21.70
2018-08-24T17:55:46.349Z,21.70
2018-08-24T17:58:14.938Z,21.60
2018-08-24T18:00:43.569Z,21.50
2018-08-24T18:03:12.565Z,21.50
2018-08-24T18:05:41.113Z,21.50
2018-08-24T18:08:09.712Z,21.50
2018-08-24T18:10:38.310Z,21.40
2018-08-24T18:13:07.170Z,21.40
2018-08-24T18:15:36.052Z,21.40
2018-08-24T18:18:04.578Z,21.30
2018-08-24T18:20:33.601Z,21.30
2018-08-24T18:23:02.165Z,21.30
2018-08-24T18:25:30.764Z,21.30
2018-08-24T18:27:59.275Z,21.30
2018-08-24T18:30:27.775Z,21.20
2018-08-24T18:32:56.693Z,21.10
2018-08-24T18:35:25.218Z,21.10
2018-08-24T18:37:53.801Z,21.00
2018-08-24T18:40:22.418Z,21.00
2018-08-24T18:42:51.166Z,20.90
2018-08-24T18:45:19.690Z,20.80
2018-08-24T18:47:48.926Z,20.80
2018-08-24T18:50:17.522Z,20.70
2018-08-24T18:52:46.416Z,20.70
2018-08-24T18:55:15.116Z,20.60
2018-08-24T18:57:43.825Z,20.60
2018-08-24T19:00:12.391Z,20.60
2018-08-24T19:02:41.192Z,20.60
2018-08-24T19:05:09.823Z,20.50
2018-08-24T19:07:38.713Z,20.50
2018-08-24T19:10:07.343Z,20.50
2018-08-24T19:12:35.928Z,20.50
2018-08-24T19:15:05.777Z,20.40
2018-08-24T19:17:40.767Z,20.40
2018-08-24T19:20:14.686Z,20.30
2018-08-24T19:22:47.539Z,20.30
2018-08-24T19:25:16.120Z,20.30
2018-08-24T19:27:50.259Z,20.30
2018-08-24T19:30:24.475Z,20.30
2018-08-24T19:32:53.652Z,20.30
2018-08-24T19:35:22.653Z,20.30
2018-08-24T19:37:51.899Z,20.30
2018-08-24T19:40:25.612Z,20.30
2018-08-24T19:42:54.708Z,20.20
2018-08-24T19:45:24.399Z,20.20
2018-08-24T19:47:58.340Z,20.20
2018-08-24T19:50:27.717Z,20.20
2018-08-24T19:52:56.268Z,20.20
2018-08-24T19:55:24.851Z,20.30
2018-08-24T19:57:59.099Z,20.30
2018-08-24T20:00:29.547Z,20.20
2018-08-24T20:02:58.193Z,20.20
2018-08-24T20:05:26.962Z,20.20
2018-08-24T20:08:00.943Z,20.20
2018-08-24T20:10:29.531Z,20.20
2018-08-24T20:12:58.659Z,20.20
2018-08-24T20:15:33.001Z,20.30
2018-08-24T20:18:03.052Z,20.40
2018-08-24T20:20:31.607Z,20.40
2018-08-24T20:23:00.433Z,20.40
2018-08-24T20:25:29.337Z,20.40
2018-08-24T20:27:58.038Z,20.40
2018-08-24T20:30:27.318Z,20.50
2018-08-24T20:32:56.012Z,20.50
2018-08-24T20:35:25.227Z,20.50
2018-08-24T20:37:53.777Z,20.50
2018-08-24T20:40:22.590Z,20.50
2018-08-24T20:42:52.414Z,20.50
2018-08-24T20:45:20.937Z,20.50
2018-08-24T20:47:49.578Z,20.50
2018-08-24T20:50:18.658Z,20.50
2018-08-24T20:52:47.201Z,20.50
2018-08-24T20:55:16.018Z,20.50
2018-08-24T20:57:44.727Z,20.50
2018-08-24T21:00:13.427Z,20.50
2018-08-24T21:02:42.083Z,20.60
2018-08-24T21:05:11.310Z,20.60
2018-08-24T21:07:40.364Z,20.60
2018-08-24T21:10:09.201Z,20.50
2018-08-24T21:12:38.185Z,20.50
2018-08-24T21:15:07.148Z,20.50
2018-08-24T21:17:36.391Z,20.50
2018-08-24T21:20:05.277Z,20.50
2018-08-24T21:22:33.800Z,20.50
2018-08-24T21:25:02.441Z,20.50
2018-08-24T21:27:31.539Z,20.50
2018-08-24T21:30:00.692Z,20.50
2018-08-24T21:32:29.387Z,20.50
2018-08-24T21:34:57.929Z,20.50
2018-08-24T21:37:26.477Z,20.50
2018-08-24T21:39:55.404Z,20.40
2018-08-24T21:42:25.115Z,20.50
2018-08-24T21:44:54.875Z,20.40
2018-08-24T21:47:24.204Z,20.40
2018-08-24T21:49:52.737Z,20.40
2018-08-24T21:52:21.464Z,20.40
2018-08-24T21:54:50.181Z,20.40
2018-08-24T21:57:18.969Z,20.30
2018-08-24T21:59:47.693Z,20.40
2018-08-24T22:02:16.269Z,20.30
2018-08-24T22:04:44.875Z,20.20
2018-08-24T22:07:13.419Z,20.20
2018-08-24T22:09:41.910Z,20.20
2018-08-24T22:12:10.480Z,20.10
2018-08-24T22:14:39.374Z,20.10
2018-08-24T22:17:08.218Z,20.00
2018-08-24T22:19:36.723Z,20.00
2018-08-24T22:22:05.786Z,19.90
2018-08-24T22:24:34.511Z,19.90
2018-08-24T22:27:03.093Z,19.90
2018-08-24T22:29:31.912Z,19.90
2018-08-24T22:32:00.463Z,19.70
2018-08-24T22:34:29.026Z,19.70
2018-08-24T22:36:57.577Z,19.60
2018-08-24T22:39:26.276Z,19.50
2018-08-24T22:41:54.804Z,19.40
2018-08-24T22:44:23.395Z,19.50
2018-08-24T22:46:51.896Z,19.50
2018-08-24T22:49:21.977Z,19.50
2018-08-24T22:51:51.463Z,19.40
2018-08-24T22:54:20.142Z,19.40
2018-08-24T22:56:48.820Z,19.40
2018-08-24T22:59:17.391Z,19.40
2018-08-24T23:01:45.974Z,19.30
2018-08-24T23:04:15.788Z,19.30
2018-08-24T23:06:44.324Z,19.40
2018-08-24T23:09:12.854Z,19.40
2018-08-24T23:11:41.573Z,19.40
2018-08-24T23:14:11.189Z,19.40
2018-08-24T23:16:39.674Z,19.40
2018-08-24T23:19:08.234Z,19.30
2018-08-24T23:21:36.733Z,19.40
2018-08-24T23:24:05.988Z,19.40
2018-08-24T23:26:34.541Z,19.30
2018-08-24T23:29:03.281Z,19.20
2018-08-24T23:31:31.865Z,19.10
2018-08-24T23:34:00.853Z,19.20
2018-08-24T23:36:29.419Z,19.10
2018-08-24T23:38:58.516Z,19.00
2018-08-24T23:41:27.699Z,19.00
2018-08-24T23:43:57.353Z,19.00
2018-08-24T23:46:25.890Z,19.00
2018-08-24T23:48:54.432Z,19.00
2018-08-24T23:51:22.972Z,19.00
2018-08-24T23:53:51.605Z,19.00
2018-08-24T23:56:21.060Z,19.10
2018-08-24T23:58:50.608Z,19.00
